Time;durP1;ratioP1;P1;durP2;ratioP2;P2;SDS_P1;SDS_P2;PMS_P1;PMS_P2;Temp;Humidity;BMP_temperature;BMP_pressure;BME280_temperature;BME280_humidity;BME280_pressure;Samples;Min_cycle;Max_cycle;Signal;HPM_P1;HPM_P2
2023/06/29 00:00:40;;;;;;;3.30;1.50;;;;;;;-145.41;100.00;58600.66;4948960;28;20039;-73
2023/06/29 00:03:06;;;;;;;3.28;1.60;;;;;;;-145.41;100.00;58600.66;4948901;28;20140;-73
2023/06/29 00:05:31;;;;;;;3.25;1.73;;;;;;;-145.41;100.00;58600.66;4949622;29;20506;-73
2023/06/29 00:07:59;;;;;;;5.28;1.60;;;;;;;-145.41;100.00;58600.66;4952304;29;20405;-73
2023/06/29 00:10:26;;;;;;;2.70;1.40;;;;;;;-145.41;100.00;58600.66;4946577;28;20154;-73
2023/06/29 00:12:53;;;;;;;4.38;1.73;;;;;;;-145.41;100.00;58600.66;4949017;29;20043;-73
2023/06/29 00:15:18;;;;;;;3.47;1.70;;;;;;;-145.41;100.00;58600.66;4951365;28;20446;-73
2023/06/29 00:17:47;;;;;;;3.65;1.83;;;;;;;-145.41;100.00;58600.66;4951336;29;20038;-73
2023/06/29 00:20:13;;;;;;;3.75;1.90;;;;;;;-145.41;100.00;58600.66;4951174;28;20167;-73
2023/06/29 00:22:47;;;;;;;5.35;1.85;;;;;;;-145.41;100.00;58600.66;4957773;28;20593;-73
2023/06/29 00:25:13;;;;;;;3.75;1.42;;;;;;;-145.41;100.00;58600.66;4951492;28;20043;-74
2023/06/29 00:27:39;;;;;;;9.02;2.15;;;;;;;-145.41;100.00;58600.66;4951056;28;20540;-73
2023/06/29 00:30:05;;;;;;;3.60;1.60;;;;;;;-145.41;100.00;58600.66;4947059;28;20044;-73
2023/06/29 00:32:30;;;;;;;3.85;2.20;;;;;;;-145.41;100.00;58600.66;4939506;29;20037;-73
2023/06/29 00:34:55;;;;;;;6.53;1.85;;;;;;;-145.41;100.00;58600.66;4951421;29;20113;-73
2023/06/29 00:37:21;;;;;;;4.80;2.08;;;;;;;-145.41;100.00;58600.66;4951255;28;20043;-73
2023/06/29 00:39:46;;;;;;;4.07;1.90;;;;;;;-145.41;100.00;58600.66;4947451;28;20061;-74
2023/06/29 00:42:11;;;;;;;3.28;1.80;;;;;;;-145.41;100.00;58600.66;4951139;28;20041;-73
2023/06/29 00:44:37;;;;;;;5.78;1.83;;;;;;;-145.41;100.00;58600.66;4953681;28;20039;-73
2023/06/29 00:47:03;;;;;;;4.13;2.30;;;;;;;-145.41;100.00;58600.66;4952405;29;20123;-73
2023/06/29 00:49:29;;;;;;;4.50;1.80;;;;;;;-145.41;100.00;58600.66;4946133;29;20122;-74
2023/06/29 00:51:55;;;;;;;4.32;2.17;;;;;;;-145.41;100.00;58600.66;4947875;28;20031;-73
2023/06/29 00:54:21;;;;;;;3.25;1.58;;;;;;;-145.41;100.00;58600.66;4932811;28;20409;-73
2023/06/29 00:56:48;;;;;;;4.90;1.92;;;;;;;-145.41;100.00;58600.66;4948893;28;20063;-74
2023/06/29 00:59:14;;;;;;;5.25;2.00;;;;;;;-145.41;100.00;58600.66;4950642;29;20736;-73
2023/06/29 01:01:40;;;;;;;4.70;1.55;;;;;;;-145.41;100.00;58600.66;4949469;28;20035;-74
2023/06/29 01:04:07;;;;;;;4.65;2.00;;;;;;;-145.41;100.00;58600.66;4948674;29;20039;-73
2023/06/29 01:06:44;;;;;;;4.47;1.98;;;;;;;-145.41;100.00;58600.66;4952450;29;20497;-73
2023/06/29 01:09:11;;;;;;;4.28;1.75;;;;;;;-145.41;100.00;58600.66;4944845;28;20028;-74
2023/06/29 01:11:37;;;;;;;5.07;2.45;;;;;;;-145.41;100.00;58600.66;4949968;29;20031;-73
2023/06/29 01:14:10;;;;;;;5.05;2.10;;;;;;;-145.41;100.00;58600.66;4947394;28;20039;-74
2023/06/29 01:16:36;;;;;;;;;;;;;;;-145.41;100.00;58600.66;4949596;29;20031;-73
2023/06/29 01:19:07;;;;;;;3.72;1.90;;;;;;;-145.41;100.00;58600.66;4951077;29;19919;-73
2023/06/29 01:21:40;;;;;;;6.30;1.70;;;;;;;-145.41;100.00;58600.66;4951125;28;20035;-73
2023/06/29 01:24:08;;;;;;;4.03;2.13;;;;;;;-145.41;100.00;58600.66;4950783;28;20094;-73
2023/06/29 01:26:33;;;;;;;4.72;2.50;;;;;;;-145.41;100.00;58600.66;4950220;29;20046;-73
2023/06/29 01:28:59;;;;;;;7.30;2.70;;;;;;;-145.41;100.00;58600.66;4952897;29;20035;-73
2023/06/29 01:31:26;;;;;;;3.25;2.00;;;;;;;-145.41;100.00;58600.66;4949285;28;20582;-73
2023/06/29 01:33:54;;;;;;;4.85;2.22;;;;;;;-145.41;100.00;58600.66;4946776;29;20038;-73
2023/06/29 01:36:28;;;;;;;5.10;1.90;;;;;;;-145.41;100.00;58600.66;4948685;29;20035;-73
2023/06/29 01:39:03;;;;;;;5.82;2.20;;;;;;;-145.41;100.00;58600.66;4944018;29;20533;-73
2023/06/29 01:41:32;;;;;;;3.80;2.17;;;;;;;-145.41;100.00;58600.66;4953273;29;20045;-74
2023/06/29 01:44:02;;;;;;;5.55;2.55;;;;;;;-145.41;100.00;58600.66;4946368;29;20031;-74
2023/06/29 01:46:28;;;;;;;4.60;2.17;;;;;;;-145.41;100.00;58600.66;4949040;29;20521;-73
2023/06/29 01:48:54;;;;;;;4.45;2.35;;;;;;;-145.41;100.00;58600.66;4952610;28;20031;-73
2023/06/29 01:51:19;;;;;;;4.40;2.03;;;;;;;-145.41;100.00;58600.66;4945695;28;20039;-74
2023/06/29 01:53:45;;;;;;;3.40;1.80;;;;;;;-145.41;100.00;58600.66;4950556;28;20082;-72
2023/06/29 01:56:10;;;;;;;5.10;2.30;;;;;;;-145.41;100.00;58600.66;4953651;28;20035;-74
2023/06/29 01:58:36;;;;;;;6.00;2.67;;;;;;;-145.41;100.00;58600.66;4952721;29;20099;-73
2023/06/29 02:01:01;;;;;;;6.00;2.78;;;;;;;-145.41;100.00;58600.66;4952208;28;20038;-73
2023/06/29 02:03:27;;;;;;;6.60;2.30;;;;;;;-145.41;100.00;58600.66;4949522;28;20149;-73
2023/06/29 02:05:52;;;;;;;6.10;2.45;;;;;;;-145.41;100.00;58600.66;4948719;28;20072;-73
2023/06/29 02:08:18;;;;;;;4.40;2.58;;;;;;;-145.41;100.00;58600.66;4949343;29;20035;-73
2023/06/29 02:10:44;;;;;;;5.80;2.78;;;;;;;-145.41;100.00;58600.66;4949341;28;20511;-73
2023/06/29 02:13:12;;;;;;;5.32;2.20;;;;;;;-145.41;100.00;58600.66;4952255;29;20035;-73
2023/06/29 02:15:38;;;;;;;3.92;2.28;;;;;;;-145.41;100.00;58600.66;4953666;29;20042;-74
2023/06/29 02:18:05;;;;;;;4.75;2.58;;;;;;;-145.41;100.00;58600.66;4952404;29;20031;-73
2023/06/29 02:20:30;;;;;;;6.57;2.67;;;;;;;-145.41;100.00;58600.66;4951438;29;20601;-73
2023/06/29 02:22:55;;;;;;;6.15;2.30;;;;;;;-145.41;100.00;58600.66;4946358;28;20046;-73
2023/06/29 02:25:21;;;;;;;4.80;2.40;;;;;;;-145.41;100.00;58600.66;4950476;29;20031;-73
2023/06/29 02:27:46;;;;;;;4.32;1.98;;;;;;;-145.41;100.00;58600.66;4947494;29;20039;-73
2023/06/29 02:30:12;;;;;;;4.82;1.92;;;;;;;-145.41;100.00;58600.66;4946062;29;20031;-73
2023/06/29 02:32:37;;;;;;;5.68;1.83;;;;;;;-145.41;100.00;58600.66;4952150;29;20130;-73
2023/06/29 02:35:03;;;;;;;4.95;2.28;;;;;;;-145.41;100.00;58600.66;4948713;29;20264;-73
2023/06/29 02:37:29;;;;;;;4.45;2.20;;;;;;;-145.41;100.00;58600.66;4947145;29;20032;-74
2023/06/29 02:39:54;;;;;;;6.03;2.10;;;;;;;-145.41;100.00;58600.66;4950364;29;20413;-73
2023/06/29 02:42:22;;;;;;;4.47;2.03;;;;;;;-145.41;100.00;58600.66;4951634;28;20035;-72
2023/06/29 02:44:47;;;;;;;5.25;1.98;;;;;;;-145.41;100.00;58600.66;4952487;28;20082;-74
2023/06/29 02:47:12;;;;;;;5.00;2.80;;;;;;;-145.41;100.00;58600.66;4951449;29;20043;-73
2023/06/29 02:49:38;;;;;;;4.45;1.63;;;;;;;-145.41;100.00;58600.66;4950860;29;20023;-74
2023/06/29 02:52:04;;;;;;;5.30;2.28;;;;;;;-145.41;100.00;58600.66;4951478;29;20090;-73
2023/06/29 02:54:30;;;;;;;6.05;2.38;;;;;;;-145.41;100.00;58600.66;4951847;29;20559;-73
2023/06/29 02:56:55;;;;;;;7.05;1.75;;;;;;;-145.41;100.00;58600.66;4951728;29;20122;-73
2023/06/29 02:59:21;;;;;;;4.35;2.20;;;;;;;-145.41;100.00;58600.66;4947865;29;20070;-73
2023/06/29 03:01:46;;;;;;;6.05;1.95;;;;;;;-145.41;100.00;58600.66;4952879;28;20039;-72
2023/06/29 03:04:12;;;;;;;5.55;2.00;;;;;;;-145.41;100.00;58600.66;4935616;29;20086;-74
2023/06/29 03:06:37;;;;;;;6.85;2.40;;;;;;;-145.41;100.00;58600.66;4950902;29;20446;-73
2023/06/29 03:09:03;;;;;;;4.68;2.25;;;;;;;-145.41;100.00;58600.66;4966310;28;20027;-73
2023/06/29 03:11:28;;;;;;;10.02;2.55;;;;;;;-145.41;100.00;58600.66;4952813;28;20462;-74
2023/06/29 03:13:55;;;;;;;4.80;2.42;;;;;;;-145.41;100.00;58600.66;4952504;29;20070;-73
2023/06/29 03:16:21;;;;;;;5.85;2.42;;;;;;;-145.41;100.00;58600.66;4952884;29;20102;-73
2023/06/29 03:18:46;;;;;;;5.35;2.35;;;;;;;-145.41;100.00;58600.66;4951994;28;20036;-73
2023/06/29 03:21:12;;;;;;;4.72;2.28;;;;;;;-145.41;100.00;58600.66;4952054;28;20038;-73
2023/06/29 03:23:37;;;;;;;5.78;2.38;;;;;;;-145.41;100.00;58600.66;4949532;28;20046;-73
2023/06/29 03:26:03;;;;;;;3.88;1.98;;;;;;;-145.41;100.00;58600.66;4952543;28;20417;-73
2023/06/29 03:28:28;;;;;;;4.30;2.30;;;;;;;-145.41;100.00;58600.66;4952459;28;20544;-73
2023/06/29 03:30:54;;;;;;;5.13;1.98;;;;;;;-145.41;100.00;58600.66;4951776;29;20043;-73
2023/06/29 03:33:19;;;;;;;5.80;2.17;;;;;;;-145.41;100.00;58600.66;4952648;29;20139;-73
2023/06/29 03:35:44;;;;;;;3.97;2.00;;;;;;;-145.41;100.00;58600.66;4952935;29;20031;-73
2023/06/29 03:38:10;;;;;;;3.92;1.92;;;;;;;-145.41;100.00;58600.66;4952512;28;20123;-73
2023/06/29 03:40:35;;;;;;;4.18;2.05;;;;;;;-145.41;100.00;58600.66;4951602;28;20113;-73
2023/06/29 03:43:01;;;;;;;4.18;1.90;;;;;;;-145.41;100.00;58600.66;4952593;28;20043;-73
2023/06/29 03:45:26;;;;;;;3.47;2.05;;;;;;;-145.41;100.00;58600.66;4952612;28;20031;-73
2023/06/29 03:47:52;;;;;;;5.35;2.10;;;;;;;-145.41;100.00;58600.66;4950839;29;20043;-73
2023/06/29 03:50:17;;;;;;;4.97;2.10;;;;;;;-145.41;100.00;58600.66;4947702;28;20054;-73
2023/06/29 03:52:43;;;;;;;3.65;1.63;;;;;;;-145.41;100.00;58600.66;4952273;29;20062;-73
2023/06/29 03:55:09;;;;;;;4.60;2.08;;;;;;;-145.41;100.00;58600.66;4950965;29;20039;-73
2023/06/29 03:57:34;;;;;;;8.93;2.47;;;;;;;-145.41;100.00;58600.66;4951952;28;20457;-73
2023/06/29 03:59:59;;;;;;;5.32;2.20;;;;;;;-145.41;100.00;58600.66;4952013;28;20078;-73
2023/06/29 04:02:25;;;;;;;3.88;1.75;;;;;;;-145.41;100.00;58600.66;4951866;28;20039;-73
2023/06/29 04:04:50;;;;;;;4.22;2.10;;;;;;;-145.41;100.00;58600.66;4951999;28;20062;-73
2023/06/29 04:07:15;;;;;;;5.32;2.15;;;;;;;-145.41;100.00;58600.66;4952401;29;20031;-73
2023/06/29 04:09:41;;;;;;;4.55;1.77;;;;;;;-145.41;100.00;58600.66;4950571;29;20027;-73
2023/06/29 04:12:07;;;;;;;4.40;2.05;;;;;;;-145.41;100.00;58600.66;4952385;28;20031;-73
2023/06/29 04:14:32;;;;;;;3.78;1.67;;;;;;;-145.41;100.00;58600.66;4952014;28;20035;-73
2023/06/29 04:16:57;;;;;;;6.38;2.08;;;;;;;-145.41;100.00;58600.66;4951950;29;20047;-73
2023/06/29 04:19:22;;;;;;;5.38;1.73;;;;;;;-145.41;100.00;58600.66;4951669;28;20122;-73
2023/06/29 04:21:48;;;;;;;4.40;1.80;;;;;;;-145.41;100.00;58600.66;4952219;28;20031;-73
2023/06/29 04:24:13;;;;;;;5.57;2.17;;;;;;;-145.41;100.00;58600.66;4951590;29;20062;-73
2023/06/29 04:26:39;;;;;;;17.92;10.25;;;;;;;-145.41;100.00;58600.66;4951103;29;20031;-73
2023/06/29 04:29:06;;;;;;;6.97;3.90;;;;;;;-145.41;100.00;58600.66;4950592;28;20031;-73
2023/06/29 04:31:32;;;;;;;8.55;2.95;;;;;;;-145.41;100.00;58600.66;4954853;28;20071;-73
2023/06/29 04:34:02;;;;;;;6.55;3.33;;;;;;;-145.41;100.00;58600.66;4955335;28;20038;-73
2023/06/29 04:36:28;;;;;;;4.40;2.17;;;;;;;-145.41;100.00;58600.66;4937033;29;20091;-73
2023/06/29 04:38:53;;;;;;;4.60;1.95;;;;;;;-145.41;100.00;58600.66;4954537;28;20043;-73
2023/06/29 04:41:18;;;;;;;5.15;1.80;;;;;;;-145.41;100.00;58600.66;4952300;28;20038;-73
2023/06/29 04:43:47;;;;;;;5.28;2.00;;;;;;;-145.41;100.00;58600.66;4955176;29;20039;-74
2023/06/29 04:46:14;;;;;;;4.05;1.50;;;;;;;-145.41;100.00;58600.66;4951942;28;20042;-74
2023/06/29 04:48:39;;;;;;;6.00;2.05;;;;;;;-145.41;100.00;58600.66;4951144;29;20035;-74
2023/06/29 04:51:05;;;;;;;5.60;1.95;;;;;;;-145.41;100.00;58600.66;4954220;28;20031;-73
2023/06/29 04:53:34;;;;;;;4.18;2.13;;;;;;;-145.41;100.00;58600.66;4971243;23;20491;-72
2023/06/29 04:56:01;;;;;;;8.63;2.45;;;;;;;-145.41;100.00;58600.66;5002416;28;20414;-73
2023/06/29 04:58:27;;;;;;;5.05;2.40;;;;;;;-145.41;100.00;58600.66;5009370;28;20069;-73
2023/06/29 05:00:54;;;;;;;4.43;2.03;;;;;;;-145.41;100.00;58600.66;4997046;28;20136;-74
2023/06/29 05:03:19;;;;;;;8.80;4.80;;;;;;;-145.41;100.00;58600.66;5002549;28;20057;-74
2023/06/29 05:05:44;;;;;;;9.05;3.05;;;;;;;-145.41;100.00;58600.66;4978796;28;20486;-73
2023/06/29 05:08:10;;;;;;;5.68;1.95;;;;;;;-145.41;100.00;58600.66;4965252;28;20379;-74
2023/06/29 05:10:35;;;;;;;5.20;2.08;;;;;;;-145.41;100.00;58600.66;4983927;28;20117;-74
2023/06/29 05:13:00;;;;;;;5.18;2.22;;;;;;;-145.41;100.00;58600.66;4980502;28;20132;-73
2023/06/29 05:15:26;;;;;;;5.13;2.47;;;;;;;-145.41;100.00;58600.66;4984911;28;20522;-74
2023/06/29 05:17:52;;;;;;;7.95;2.70;;;;;;;-145.41;100.00;58600.66;4987935;28;20472;-74
2023/06/29 05:20:18;;;;;;;5.90;2.22;;;;;;;-145.41;100.00;58600.66;4977421;28;20042;-73
2023/06/29 05:22:43;;;;;;;4.95;2.85;;;;;;;-145.41;100.00;58600.66;4981862;28;20093;-73
2023/06/29 05:25:09;;;;;;;6.05;2.20;;;;;;;-145.41;100.00;58600.66;4985321;28;20035;-74
2023/06/29 05:27:34;;;;;;;6.03;2.08;;;;;;;-145.41;100.00;58600.66;4979262;28;20048;-73
2023/06/29 05:30:00;;;;;;;5.20;2.17;;;;;;;-145.41;100.00;58600.66;4986365;28;20417;-73
2023/06/29 05:32:26;;;;;;;8.20;2.60;;;;;;;-145.41;100.00;58600.66;4985049;28;20122;-74
2023/06/29 05:34:51;;;;;;;4.38;1.83;;;;;;;-145.41;100.00;58600.66;4981111;28;20038;-73
2023/06/29 05:37:16;;;;;;;8.73;3.03;;;;;;;-145.41;100.00;58600.66;4988252;28;20037;-74
2023/06/29 05:39:42;;;;;;;5.95;2.85;;;;;;;-145.41;100.00;58600.66;4982103;28;20066;-73
2023/06/29 05:42:07;;;;;;;3.92;1.67;;;;;;;-145.41;100.00;58600.66;4981954;28;20053;-73
2023/06/29 05:44:33;;;;;;;4.88;1.80;;;;;;;-145.41;100.00;58600.66;4971500;28;20034;-74
2023/06/29 05:46:58;;;;;;;6.97;2.28;;;;;;;-145.41;100.00;58600.66;4978832;28;20174;-74
2023/06/29 05:49:24;;;;;;;7.07;2.75;;;;;;;-145.41;100.00;58600.66;4983237;28;20037;-74
2023/06/29 05:51:50;;;;;;;5.47;2.28;;;;;;;-145.41;100.00;58600.66;4978265;28;20031;-74
2023/06/29 05:54:16;;;;;;;5.00;2.92;;;;;;;-145.41;100.00;58600.66;4982215;28;20114;-74
2023/06/29 05:56:41;;;;;;;5.40;3.30;;;;;;;-145.41;100.00;58600.66;4960877;28;20027;-74
2023/06/29 05:59:06;;;;;;;7.25;2.53;;;;;;;-145.41;100.00;58600.66;4981291;28;20086;-74
2023/06/29 06:01:32;;;;;;;4.28;1.88;;;;;;;-145.41;100.00;58600.66;4985132;28;20046;-73
2023/06/29 06:03:57;;;;;;;6.22;1.55;;;;;;;-145.41;100.00;58600.66;4979145;28;20109;-74
2023/06/29 06:06:22;;;;;;;4.00;2.03;;;;;;;-145.41;100.00;58600.66;4983199;28;20425;-74
2023/06/29 06:08:48;;;;;;;7.20;2.05;;;;;;;-145.41;100.00;58600.66;4987988;28;20026;-72
2023/06/29 06:11:13;;;;;;;4.38;2.17;;;;;;;-145.41;100.00;58600.66;4977860;28;20113;-74
2023/06/29 06:13:38;;;;;;;4.40;1.80;;;;;;;-145.41;100.00;58600.66;4984060;28;20030;-74
2023/06/29 06:16:04;;;;;;;3.60;1.80;;;;;;;-145.41;100.00;58600.66;4988793;28;20452;-74
2023/06/29 06:18:30;;;;;;;5.90;1.88;;;;;;;-145.41;100.00;58600.66;4977811;28;20527;-75
2023/06/29 06:20:55;;;;;;;3.65;2.03;;;;;;;-145.41;100.00;58600.66;4981825;28;20052;-74
2023/06/29 06:23:21;;;;;;;3.35;1.45;;;;;;;-145.41;100.00;58600.66;4984975;28;20031;-74
2023/06/29 06:25:47;;;;;;;3.30;1.67;;;;;;;-145.41;100.00;58600.66;4978824;28;20043;-74
2023/06/29 06:28:12;;;;;;;3.33;1.48;;;;;;;-145.41;100.00;58600.66;4984642;28;20041;-73
2023/06/29 06:30:38;;;;;;;5.07;1.90;;;;;;;-145.41;100.00;58600.66;4980081;28;20038;-74
2023/06/29 06:33:04;;;;;;;4.75;1.63;;;;;;;-145.41;100.00;58600.66;4979610;28;20100;-74
2023/06/29 06:35:29;;;;;;;5.80;1.80;;;;;;;-145.41;100.00;58600.66;4985617;28;20500;-74
2023/06/29 06:37:55;;;;;;;3.92;1.92;;;;;;;-145.41;100.00;58600.66;4982758;28;20030;-74
2023/06/29 06:40:21;;;;;;;5.50;1.85;;;;;;;-145.41;100.00;58600.66;4984706;28;20026;-74
2023/06/29 06:42:46;;;;;;;4.30;1.80;;;;;;;-145.41;100.00;58600.66;4974978;28;20549;-74
2023/06/29 06:45:13;;;;;;;4.97;2.03;;;;;;;-145.41;100.00;58600.66;4981264;28;20034;-74
2023/06/29 06:47:39;;;;;;;5.22;1.80;;;;;;;-145.41;100.00;58600.66;4985068;28;20037;-73
2023/06/29 06:50:05;;;;;;;3.65;1.77;;;;;;;-145.41;100.00;58600.66;4977350;28;20030;-75
2023/06/29 06:52:31;;;;;;;4.63;1.88;;;;;;;-145.41;100.00;58600.66;4983654;28;20065;-73
2023/06/29 06:54:56;;;;;;;3.85;1.63;;;;;;;-145.41;100.00;58600.66;4975672;28;20030;-74
2023/06/29 06:57:22;;;;;;;4.78;1.83;;;;;;;-145.41;100.00;58600.66;4978006;28;20118;-74
2023/06/29 06:59:48;;;;;;;4.40;1.40;;;;;;;-145.41;100.00;58600.66;4974947;28;20367;-74
2023/06/29 07:02:13;;;;;;;6.13;1.55;;;;;;;-145.41;100.00;58600.66;4982852;28;20092;-73
2023/06/29 07:04:39;;;;;;;4.72;2.05;;;;;;;-145.41;100.00;58600.66;4983941;28;20076;-74
2023/06/29 07:07:06;;;;;;;5.88;2.58;;;;;;;-145.41;100.00;58600.66;4981021;28;20689;-74
2023/06/29 07:09:31;;;;;;;5.50;2.00;;;;;;;-145.41;100.00;58600.66;4979375;28;20030;-73
2023/06/29 07:11:58;;;;;;;3.95;1.65;;;;;;;-145.41;100.00;58600.66;4969188;28;20129;-74
2023/06/29 07:14:23;;;;;;;4.85;2.17;;;;;;;-145.41;100.00;58600.66;4980914;28;20038;-73
2023/06/29 07:16:49;;;;;;;6.25;2.20;;;;;;;-145.41;100.00;58600.66;4982607;28;20026;-74
2023/06/29 07:19:15;;;;;;;4.28;2.03;;;;;;;-145.41;100.00;58600.66;4977012;28;20039;-74
2023/06/29 07:21:41;;;;;;;3.17;1.80;;;;;;;-145.41;100.00;58600.66;4967882;28;20041;-74
2023/06/29 07:24:07;;;;;;;3.72;1.55;;;;;;;-145.41;100.00;58600.66;4982058;28;20034;-74
2023/06/29 07:26:33;;;;;;;3.55;1.48;;;;;;;-145.41;100.00;58600.66;4983311;28;20034;-74
2023/06/29 07:28:58;;;;;;;4.28;1.80;;;;;;;-145.41;100.00;58600.66;4978606;28;20035;-74
2023/06/29 07:31:27;;;;;;;9.32;2.83;;;;;;;-145.41;100.00;58600.66;4984438;28;20515;-74
2023/06/29 07:33:54;;;;;;;4.88;1.75;;;;;;;-145.41;100.00;58600.66;4984947;28;20104;-75
2023/06/29 07:36:20;;;;;;;5.30;2.08;;;;;;;-145.41;100.00;58600.66;4983691;28;20038;-73
2023/06/29 07:38:46;;;;;;;4.85;1.58;;;;;;;-145.41;100.00;58600.66;4978117;28;20044;-72
2023/06/29 07:41:12;;;;;;;4.93;1.65;;;;;;;-145.41;100.00;58600.66;4985536;28;20497;-74
2023/06/29 07:43:39;;;;;;;5.85;1.60;;;;;;;-145.41;100.00;58600.66;4980378;28;20045;-74
2023/06/29 07:46:05;;;;;;;5.43;1.70;;;;;;;-145.41;100.00;58600.66;4978928;28;20489;-74
2023/06/29 07:48:32;;;;;;;4.07;1.55;;;;;;;-145.41;100.00;58600.66;4982764;28;20066;-74
2023/06/29 07:50:57;;;;;;;3.15;1.67;;;;;;;-145.41;100.00;58600.66;4979437;28;20062;-74
2023/06/29 07:53:23;;;;;;;5.13;1.88;;;;;;;-145.41;100.00;58600.66;4979305;28;20121;-74
2023/06/29 07:55:48;;;;;;;5.05;1.70;;;;;;;-145.41;100.00;58600.66;4985429;28;20045;-73
2023/06/29 07:58:13;;;;;;;5.07;1.80;;;;;;;-145.41;100.00;58600.66;4975746;28;20045;-75
2023/06/29 08:00:39;;;;;;;5.20;2.30;;;;;;;-145.41;100.00;58600.66;4985952;28;20489;-74
2023/06/29 08:03:05;;;;;;;4.40;1.70;;;;;;;-145.41;100.00;58600.66;4977901;28;20564;-74
2023/06/29 08:05:30;;;;;;;5.68;1.95;;;;;;;-145.41;100.00;58600.66;4981147;28;20045;-75
2023/06/29 08:07:55;;;;;;;5.82;1.50;;;;;;;-145.41;100.00;58600.66;4988517;28;20117;-75
2023/06/29 08:10:21;;;;;;;4.28;1.60;;;;;;;-145.41;100.00;58600.66;4979745;28;20042;-74
2023/06/29 08:12:46;;;;;;;4.30;1.80;;;;;;;-145.41;100.00;58600.66;4987309;28;20038;-74
2023/06/29 08:15:12;;;;;;;6.10;1.88;;;;;;;-145.41;100.00;58600.66;4989335;28;20033;-75
2023/06/29 08:17:37;;;;;;;3.67;1.42;;;;;;;-145.41;100.00;58600.66;4981141;28;20042;-74
2023/06/29 08:20:05;;;;;;;4.97;1.90;;;;;;;-145.41;100.00;58600.66;4987309;28;20436;-74
2023/06/29 08:22:31;;;;;;;4.63;1.65;;;;;;;-145.41;100.00;58600.66;4985639;28;20030;-74
2023/06/29 08:24:56;;;;;;;5.38;2.13;;;;;;;-145.41;100.00;58600.66;4981950;28;20508;-74
2023/06/29 08:27:21;;;;;;;5.13;1.60;;;;;;;-145.41;100.00;58600.66;4985161;28;20038;-74
2023/06/29 08:29:47;;;;;;;6.57;1.60;;;;;;;-145.41;100.00;58600.66;4984580;28;20033;-73
2023/06/29 08:32:13;;;;;;;4.20;1.50;;;;;;;-145.41;100.00;58600.66;4982621;28;20062;-75
2023/06/29 08:34:38;;;;;;;2.78;1.27;;;;;;;-145.41;100.00;58600.66;4986677;28;20085;-75
2023/06/29 08:37:03;;;;;;;5.32;1.67;;;;;;;-145.41;100.00;58600.66;4985208;28;20100;-74
2023/06/29 08:39:30;;;;;;;4.28;1.70;;;;;;;-145.41;100.00;58600.66;4981467;28;20039;-74
2023/06/29 08:41:56;;;;;;;4.65;1.45;;;;;;;-145.41;100.00;58600.66;4988874;28;20045;-74
2023/06/29 08:44:22;;;;;;;5.93;1.40;;;;;;;-145.41;100.00;58600.66;4980494;28;20034;-73
2023/06/29 08:46:48;;;;;;;6.38;1.92;;;;;;;-145.41;100.00;58600.66;4982861;28;20057;-74
2023/06/29 08:49:14;;;;;;;6.30;2.17;;;;;;;-145.41;100.00;58600.66;4982130;28;20097;-74
2023/06/29 08:51:43;;;;;;;3.88;1.48;;;;;;;-145.41;100.00;58600.66;4981271;28;20078;-74
2023/06/29 08:54:11;;;;;;;3.67;1.92;;;;;;;-145.41;100.00;58600.66;4986208;28;20034;-75
2023/06/29 08:56:36;;;;;;;6.20;1.90;;;;;;;-145.41;100.00;58600.66;4982876;28;20374;-74
2023/06/29 08:59:02;;;;;;;5.65;1.88;;;;;;;-145.41;100.00;58600.66;4983815;28;20049;-74
2023/06/29 09:01:28;;;;;;;4.68;1.65;;;;;;;-145.41;100.00;58600.66;4967599;28;20026;-74
2023/06/29 09:03:54;;;;;;;4.40;1.60;;;;;;;-145.41;100.00;58600.66;4985516;28;20046;-75
2023/06/29 09:06:19;;;;;;;4.28;1.45;;;;;;;-145.41;100.00;58600.66;4981502;28;20679;-74
2023/06/29 09:08:45;;;;;;;4.25;1.55;;;;;;;-145.41;100.00;58600.66;4969154;28;20054;-74
2023/06/29 09:11:10;;;;;;;3.20;1.30;;;;;;;-145.41;100.00;58600.66;4980417;28;20030;-74
2023/06/29 09:13:36;;;;;;;4.18;1.33;;;;;;;-145.41;100.00;58600.66;4987132;28;20031;-74
2023/06/29 09:16:03;;;;;;;4.60;1.17;;;;;;;-145.41;100.00;58600.66;4986508;28;20646;-74
2023/06/29 09:18:29;;;;;;;2.45;1.02;;;;;;;-145.41;100.00;58600.66;4986333;28;20043;-74
2023/06/29 09:20:56;;;;;;;5.60;1.30;;;;;;;-145.41;100.00;58600.66;4983146;28;20042;-74
2023/06/29 09:23:25;;;;;;;2.90;1.10;;;;;;;-145.41;100.00;58600.66;4987486;28;20038;-74
2023/06/29 09:25:54;;;;;;;3.85;1.70;;;;;;;-145.41;100.00;58600.66;4980369;28;20047;-74
2023/06/29 09:28:19;;;;;;;3.53;1.13;;;;;;;-145.41;100.00;58600.66;4987427;28;20072;-74
2023/06/29 09:30:45;;;;;;;2.88;1.20;;;;;;;-145.41;100.00;58600.66;4961825;28;20489;-74
2023/06/29 09:33:12;;;;;;;3.90;1.42;;;;;;;-145.41;100.00;58600.66;4982812;28;20441;-74
2023/06/29 09:35:40;;;;;;;4.28;1.48;;;;;;;-145.41;100.00;58600.66;4984738;28;20113;-74
2023/06/29 09:38:06;;;;;;;3.15;1.20;;;;;;;-145.41;100.00;58600.66;4979375;28;20034;-74
2023/06/29 09:40:44;;;;;;;1.90;1.15;;;;;;;-145.41;100.00;58600.66;4981861;28;20493;-74
2023/06/29 09:43:14;;;;;;;3.13;1.00;;;;;;;-145.41;100.00;58600.66;4984068;28;20042;-74
2023/06/29 09:45:40;;;;;;;2.38;1.00;;;;;;;-145.41;100.00;58600.66;4984148;28;20082;-74
2023/06/29 09:48:10;;;;;;;2.97;1.10;;;;;;;-145.41;100.00;58600.66;4981218;28;20441;-75
2023/06/29 09:50:35;;;;;;;3.15;1.10;;;;;;;-145.41;100.00;58600.66;4982937;28;20058;-75
2023/06/29 09:53:07;;;;;;;3.70;1.33;;;;;;;-145.41;100.00;58600.66;4981538;28;20471;-73
2023/06/29 09:55:34;;;;;;;4.70;1.90;;;;;;;-145.41;100.00;58600.66;4980485;28;20089;-74
2023/06/29 09:58:00;;;;;;;3.03;1.58;;;;;;;-145.41;100.00;58600.66;4979285;28;20113;-74
2023/06/29 10:00:27;;;;;;;5.03;1.42;;;;;;;-145.41;100.00;58600.66;4962827;28;20039;-74
2023/06/29 10:02:54;;;;;;;2.67;1.15;;;;;;;-145.41;100.00;58600.66;4985889;28;20125;-75
2023/06/29 10:05:20;;;;;;;5.03;2.10;;;;;;;-145.41;100.00;58600.66;4983954;28;20053;-75
2023/06/29 10:07:46;;;;;;;3.50;0.95;;;;;;;-145.41;100.00;58600.66;4981765;28;20501;-74
2023/06/29 10:10:14;;;;;;;3.50;1.48;;;;;;;-145.41;100.00;58600.66;4987929;28;20038;-74
2023/06/29 10:12:40;;;;;;;2.72;1.02;;;;;;;-145.41;100.00;58600.66;4977157;28;20042;-74
2023/06/29 10:15:12;;;;;;;2.53;1.20;;;;;;;-145.41;100.00;58600.66;4982478;28;20041;-74
2023/06/29 10:17:49;;;;;;;2.40;1.17;;;;;;;-145.41;100.00;58600.66;4983651;28;20430;-74
2023/06/29 10:20:17;;;;;;;2.83;1.40;;;;;;;-145.41;100.00;58600.66;4980480;28;20038;-74
2023/06/29 10:22:44;;;;;;;4.20;2.08;;;;;;;-145.41;100.00;58600.66;4964868;28;20043;-75
2023/06/29 10:25:14;;;;;;;3.17;1.42;;;;;;;-145.41;100.00;58600.66;4984314;28;20086;-74
2023/06/29 10:27:40;;;;;;;3.40;1.20;;;;;;;-145.41;100.00;58600.66;4983988;28;20035;-74
2023/06/29 10:30:06;;;;;;;3.35;1.45;;;;;;;-145.41;100.00;58600.66;4982122;28;20519;-74
2023/06/29 10:32:37;;;;;;;3.58;1.48;;;;;;;-145.41;100.00;58600.66;4979439;28;20041;-75
2023/06/29 10:35:09;;;;;;;3.92;1.70;;;;;;;-145.41;100.00;58600.66;4980136;28;20042;-74
2023/06/29 10:37:34;;;;;;;3.70;1.50;;;;;;;-145.41;100.00;58600.66;4981332;28;20038;-74
2023/06/29 10:40:00;;;;;;;6.22;2.13;;;;;;;-145.41;100.00;58600.66;4979171;28;20053;-74
2023/06/29 10:42:25;;;;;;;5.03;1.98;;;;;;;-145.41;100.00;58600.66;4983853;28;20030;-75
2023/06/29 10:44:50;;;;;;;3.50;1.30;;;;;;;-145.41;100.00;58600.66;4985969;28;20113;-74
2023/06/29 10:47:27;;;;;;;3.97;1.48;;;;;;;-145.41;100.00;58600.66;4977432;28;20482;-74
2023/06/29 10:50:10;;;;;;;3.30;1.38;;;;;;;-145.41;100.00;58600.66;4982432;28;20045;-74
2023/06/29 10:52:40;;;;;;;4.95;1.80;;;;;;;-145.41;100.00;58600.66;4981095;28;20089;-74
2023/06/29 10:55:19;;;;;;;2.92;1.35;;;;;;;-145.41;100.00;58600.66;4990991;23;20047;-75
2023/06/29 10:57:58;;;;;;;5.38;1.63;;;;;;;-145.41;100.00;58600.66;4971946;28;20054;-76
2023/06/29 11:00:25;;;;;;;4.30;1.58;;;;;;;-145.41;100.00;58600.66;4968706;28;20042;-75
2023/06/29 11:02:52;;;;;;;4.15;1.30;;;;;;;-145.41;100.00;58600.66;4969606;28;20046;-76
2023/06/29 11:05:19;;;;;;;2.92;1.40;;;;;;;-145.41;100.00;58600.66;4971192;28;20046;-75